GEC8502 EDDF-EDDH
Flight info
| Callsign | GEC8502 |
|---|---|
| Flight time | 0h 45m |
| Altitude | 35000 |
| Route | MARUN2D/07C MARUN Y150 TOLGI DCT SAS/N0473F340 P605 NOLGO NOLGO3D |
| Aircraft | B77L/H-SDE1E2E3FGHIJ2J3J4J5M1RWXY/LB1D1 |
Departure
| Time | 2026-05-01 13:54 |
|---|---|
| Airport | Frankfurt Main Airport (EDDF) |
Arrival
| Time | 2026-05-01 14:40 |
|---|---|
| Airport | Hamburg Helmut Schmidt Airport (EDDH) |
| Time | Latitude | Longitude | Altitude | Speed | Heading |
|---|---|---|---|---|---|
| 2026-05-01 13:27 | 50.04005 | 8.54555 | 380 ft | 0 kts | 251° |
| 2026-05-01 13:43 | 50.04007 | 8.54565 | 379 ft | 1 kts | 251° |
| 2026-05-01 13:43 | 50.04011 | 8.54579 | 379 ft | 2 kts | 248° |
| 2026-05-01 13:43 | 50.04018 | 8.54600 | 380 ft | 2 kts | 229° |
| 2026-05-01 13:43 | 50.04029 | 8.54616 | 380 ft | 2 kts | 214° |
| 2026-05-01 13:44 | 50.04042 | 8.54627 | 380 ft | 2 kts | 200° |
| 2026-05-01 13:44 | 50.04057 | 8.54633 | 380 ft | 2 kts | 185° |
| 2026-05-01 13:44 | 50.04072 | 8.54633 | 380 ft | 2 kts | 171° |
| 2026-05-01 13:44 | 50.04082 | 8.54629 | 380 ft | 0 kts | 161° |
| 2026-05-01 13:45 | 50.04086 | 8.54627 | 380 ft | 0 kts | 160° |
| 2026-05-01 13:47 | 50.04070 | 8.54636 | 379 ft | 6 kts | 161° |
| 2026-05-01 13:48 | 50.04005 | 8.54671 | 379 ft | 13 kts | 161° |
| 2026-05-01 13:48 | 50.03927 | 8.54619 | 379 ft | 14 kts | 244° |
| 2026-05-01 13:48 | 50.03888 | 8.54464 | 379 ft | 16 kts | 249° |
| 2026-05-01 13:48 | 50.03819 | 8.54340 | 379 ft | 16 kts | 181° |
| 2026-05-01 13:49 | 50.03706 | 8.54375 | 379 ft | 16 kts | 194° |
| 2026-05-01 13:49 | 50.03650 | 8.54283 | 379 ft | 9 kts | 246° |
| 2026-05-01 13:49 | 50.03624 | 8.54165 | 379 ft | 13 kts | 249° |
| 2026-05-01 13:49 | 50.03586 | 8.54008 | 379 ft | 17 kts | 249° |
| 2026-05-01 13:50 | 50.03539 | 8.53818 | 379 ft | 20 kts | 249° |
| 2026-05-01 13:50 | 50.03491 | 8.53611 | 379 ft | 15 kts | 250° |
| 2026-05-01 13:50 | 50.03514 | 8.53488 | 379 ft | 13 kts | 356° |
| 2026-05-01 13:50 | 50.03598 | 8.53535 | 379 ft | 12 kts | 37° |
| 2026-05-01 13:51 | 50.03653 | 8.53629 | 379 ft | 12 kts | 59° |
| 2026-05-01 13:51 | 50.03690 | 8.53748 | 379 ft | 12 kts | 68° |
| 2026-05-01 13:51 | 50.03719 | 8.53876 | 379 ft | 12 kts | 73° |
| 2026-05-01 13:51 | 50.03745 | 8.54010 | 379 ft | 12 kts | 71° |
| 2026-05-01 13:52 | 50.03779 | 8.54140 | 379 ft | 13 kts | 67° |
| 2026-05-01 13:52 | 50.03803 | 8.54279 | 379 ft | 13 kts | 94° |
| 2026-05-01 13:52 | 50.03739 | 8.54382 | 379 ft | 13 kts | 167° |
| 2026-05-01 13:52 | 50.03655 | 8.54330 | 379 ft | 13 kts | 214° |
| 2026-05-01 13:53 | 50.03565 | 8.54330 | 379 ft | 12 kts | 160° |
| 2026-05-01 13:53 | 50.03504 | 8.54468 | 379 ft | 0 kts | 68° |
| 2026-05-01 13:54 | 50.03521 | 8.54536 | 379 ft | 24 kts | 70° |
| 2026-05-01 13:54 | 50.03673 | 8.55181 | 379 ft | 103 kts | 69° |
| 2026-05-01 13:54 | 50.04013 | 8.56572 | 449 ft | 165 kts | 71° |
| 2026-05-01 13:54 | 50.04483 | 8.58209 | 1413 ft | 156 kts | 72° |
| 2026-05-01 13:55 | 50.04804 | 8.59802 | 2123 ft | 156 kts | 81° |
| 2026-05-01 13:55 | 50.05139 | 8.61535 | 2730 ft | 165 kts | 76° |
| 2026-05-01 13:55 | 50.05549 | 8.63368 | 3228 ft | 182 kts | 75° |
| 2026-05-01 13:55 | 50.06002 | 8.65393 | 3779 ft | 198 kts | 75° |
| 2026-05-01 13:56 | 50.06493 | 8.67596 | 4356 ft | 215 kts | 75° |
| 2026-05-01 13:56 | 50.07158 | 8.69946 | 5077 ft | 229 kts | 60° |
| 2026-05-01 13:56 | 50.08334 | 8.71775 | 5856 ft | 241 kts | 36° |
| 2026-05-01 13:56 | 50.09900 | 8.72965 | 6457 ft | 261 kts | 26° |
| 2026-05-01 13:57 | 50.11607 | 8.74050 | 7124 ft | 276 kts | 26° |
| 2026-05-01 13:57 | 50.12806 | 8.74833 | 7709 ft | 280 kts | 27° |
| 2026-05-01 13:57 | 50.15183 | 8.76424 | 8932 ft | 285 kts | 27° |
| 2026-05-01 13:57 | 50.16989 | 8.77646 | 9822 ft | 288 kts | 27° |
| 2026-05-01 13:58 | 50.18820 | 8.78887 | 10680 ft | 292 kts | 27° |
| 2026-05-01 13:58 | 50.20735 | 8.80190 | 11251 ft | 308 kts | 27° |
| 2026-05-01 13:58 | 50.22771 | 8.81573 | 11820 ft | 324 kts | 26° |
| 2026-05-01 13:58 | 50.24925 | 8.82995 | 12399 ft | 340 kts | 23° |
| 2026-05-01 13:59 | 50.27273 | 8.84008 | 12986 ft | 358 kts | 13° |
| 2026-05-01 13:59 | 50.29826 | 8.84397 | 13558 ft | 376 kts | 2° |
| 2026-05-01 13:59 | 50.32459 | 8.84078 | 14140 ft | 392 kts | 354° |
| 2026-05-01 13:59 | 50.35170 | 8.83449 | 14909 ft | 400 kts | 354° |
| 2026-05-01 14:00 | 50.37923 | 8.82814 | 15805 ft | 405 kts | 354° |
| 2026-05-01 14:00 | 50.40747 | 8.82178 | 16717 ft | 410 kts | 354° |
| 2026-05-01 14:00 | 50.43547 | 8.81559 | 17566 ft | 414 kts | 354° |
| 2026-05-01 14:00 | 50.46440 | 8.80926 | 18444 ft | 419 kts | 354° |
| 2026-05-01 14:01 | 50.49469 | 8.80268 | 19358 ft | 423 kts | 354° |
| 2026-05-01 14:01 | 50.52691 | 8.79572 | 20281 ft | 427 kts | 354° |
| 2026-05-01 14:01 | 50.55925 | 8.78872 | 21173 ft | 431 kts | 353° |
| 2026-05-01 14:01 | 50.59156 | 8.77723 | 22006 ft | 438 kts | 346° |
| 2026-05-01 14:02 | 50.62364 | 8.76270 | 22862 ft | 442 kts | 346° |
| 2026-05-01 14:02 | 50.65506 | 8.74830 | 23671 ft | 446 kts | 345° |
| 2026-05-01 14:02 | 50.68822 | 8.73312 | 24459 ft | 451 kts | 345° |
| 2026-05-01 14:02 | 50.72040 | 8.71838 | 25173 ft | 455 kts | 345° |
| 2026-05-01 14:03 | 50.75229 | 8.70554 | 25845 ft | 458 kts | 351° |
| 2026-05-01 14:03 | 50.78394 | 8.70019 | 26501 ft | 461 kts | 0° |
| 2026-05-01 14:03 | 50.81577 | 8.70244 | 27128 ft | 464 kts | 8° |
| 2026-05-01 14:03 | 50.84755 | 8.71250 | 27761 ft | 467 kts | 17° |
| 2026-05-01 14:04 | 50.87800 | 8.73019 | 28376 ft | 471 kts | 26° |
| 2026-05-01 14:04 | 50.90669 | 8.75542 | 28988 ft | 475 kts | 34° |
| 2026-05-01 14:04 | 50.93273 | 8.78771 | 29598 ft | 479 kts | 43° |
| 2026-05-01 14:04 | 50.94821 | 8.81290 | 30108 ft | 479 kts | 50° |
| 2026-05-01 14:05 | 50.97354 | 8.87032 | 31234 ft | 476 kts | 62° |
| 2026-05-01 14:05 | 50.98702 | 8.91796 | 32023 ft | 473 kts | 70° |
| 2026-05-01 14:05 | 50.99818 | 8.96734 | 32701 ft | 472 kts | 68° |
| 2026-05-01 14:05 | 51.01142 | 9.01603 | 33271 ft | 472 kts | 64° |
| 2026-05-01 14:06 | 51.02617 | 9.06194 | 33817 ft | 472 kts | 61° |
| 2026-05-01 14:06 | 51.04245 | 9.10719 | 34400 ft | 471 kts | 58° |
| 2026-05-01 14:06 | 51.05951 | 9.15112 | 35056 ft | 469 kts | 57° |
| 2026-05-01 14:06 | 51.07753 | 9.19392 | 35336 ft | 471 kts | 52° |
| 2026-05-01 14:07 | 51.12352 | 9.26633 | 35339 ft | 465 kts | 35° |
| 2026-05-01 14:08 | 51.21166 | 9.32727 | 35343 ft | 465 kts | 10° |
| 2026-05-01 14:08 | 51.27531 | 9.33875 | 35352 ft | 465 kts | 5° |
| 2026-05-01 14:09 | 51.33944 | 9.34705 | 35361 ft | 464 kts | 5° |
| 2026-05-01 14:09 | 51.40356 | 9.35536 | 35357 ft | 464 kts | 5° |
| 2026-05-01 14:10 | 51.46812 | 9.36375 | 35355 ft | 465 kts | 5° |
| 2026-05-01 14:10 | 51.53252 | 9.37214 | 35352 ft | 465 kts | 5° |
| 2026-05-01 14:11 | 51.59678 | 9.38053 | 35349 ft | 465 kts | 5° |
| 2026-05-01 14:11 | 51.69315 | 9.39316 | 35348 ft | 465 kts | 5° |
| 2026-05-01 14:12 | 51.75751 | 9.40162 | 35345 ft | 465 kts | 5° |
| 2026-05-01 14:12 | 51.82156 | 9.41006 | 35347 ft | 466 kts | 5° |
| 2026-05-01 14:13 | 51.87530 | 9.41716 | 35348 ft | 465 kts | 5° |
| 2026-05-01 14:13 | 51.95066 | 9.42713 | 35346 ft | 466 kts | 5° |
| 2026-05-01 14:14 | 52.01540 | 9.43573 | 35338 ft | 465 kts | 5° |
| 2026-05-01 14:14 | 52.07995 | 9.44432 | 35339 ft | 466 kts | 5° |
| 2026-05-01 14:15 | 52.14437 | 9.45292 | 35346 ft | 466 kts | 5° |
| 2026-05-01 14:15 | 52.20921 | 9.46159 | 35359 ft | 466 kts | 5° |
| 2026-05-01 14:16 | 52.27399 | 9.47028 | 35350 ft | 467 kts | 5° |
| 2026-05-01 14:16 | 52.33931 | 9.47907 | 35357 ft | 467 kts | 5° |
| 2026-05-01 14:17 | 52.40462 | 9.48787 | 35355 ft | 467 kts | 5° |
| 2026-05-01 14:17 | 52.46895 | 9.49657 | 34974 ft | 474 kts | 5° |
| 2026-05-01 14:18 | 52.50195 | 9.50104 | 34309 ft | 476 kts | 5° |
| 2026-05-01 14:18 | 52.53477 | 9.50549 | 33671 ft | 474 kts | 5° |
| 2026-05-01 14:18 | 52.56748 | 9.50994 | 33033 ft | 473 kts | 5° |
| 2026-05-01 14:18 | 52.58909 | 9.51287 | 32610 ft | 472 kts | 5° |
| 2026-05-01 14:19 | 52.63255 | 9.51879 | 31760 ft | 477 kts | 5° |
| 2026-05-01 14:19 | 52.66561 | 9.52331 | 31119 ft | 480 kts | 5° |
| 2026-05-01 14:19 | 52.69893 | 9.52786 | 30469 ft | 481 kts | 6° |
| 2026-05-01 14:19 | 52.73225 | 9.53241 | 29792 ft | 478 kts | 5° |
| 2026-05-01 14:20 | 52.76495 | 9.53689 | 29131 ft | 475 kts | 6° |
| 2026-05-01 14:20 | 52.82983 | 9.54579 | 27801 ft | 468 kts | 6° |
| 2026-05-01 14:20 | 52.86205 | 9.55021 | 27137 ft | 465 kts | 5° |
| 2026-05-01 14:21 | 52.89421 | 9.55463 | 26473 ft | 462 kts | 6° |
| 2026-05-01 14:21 | 52.92591 | 9.55900 | 25815 ft | 458 kts | 5° |
| 2026-05-01 14:21 | 52.95734 | 9.56332 | 25367 ft | 450 kts | 5° |
| 2026-05-01 14:22 | 53.01844 | 9.57175 | 25331 ft | 444 kts | 5° |
| 2026-05-01 14:22 | 53.04906 | 9.57599 | 25233 ft | 446 kts | 5° |
| 2026-05-01 14:22 | 53.07984 | 9.58025 | 24716 ft | 440 kts | 6° |
| 2026-05-01 14:22 | 53.10992 | 9.58441 | 24179 ft | 435 kts | 5° |
| 2026-05-01 14:23 | 53.13976 | 9.58854 | 23627 ft | 428 kts | 5° |
| 2026-05-01 14:23 | 53.16942 | 9.59265 | 23079 ft | 421 kts | 5° |
| 2026-05-01 14:23 | 53.19790 | 9.59660 | 22549 ft | 415 kts | 5° |
| 2026-05-01 14:23 | 53.22656 | 9.60058 | 22000 ft | 409 kts | 6° |
| 2026-05-01 14:24 | 53.25468 | 9.60449 | 21467 ft | 403 kts | 6° |
| 2026-05-01 14:24 | 53.28204 | 9.60829 | 20951 ft | 398 kts | 6° |
| 2026-05-01 14:24 | 53.30941 | 9.61210 | 20436 ft | 393 kts | 6° |
| 2026-05-01 14:24 | 53.33642 | 9.61586 | 19923 ft | 388 kts | 6° |
| 2026-05-01 14:25 | 53.36319 | 9.61959 | 19394 ft | 383 kts | 6° |
| 2026-05-01 14:25 | 53.38929 | 9.62323 | 18879 ft | 379 kts | 6° |
| 2026-05-01 14:25 | 53.41562 | 9.62690 | 18359 ft | 375 kts | 6° |
| 2026-05-01 14:25 | 53.44152 | 9.63052 | 17848 ft | 372 kts | 6° |
| 2026-05-01 14:26 | 53.46716 | 9.63411 | 17339 ft | 368 kts | 6° |
| 2026-05-01 14:26 | 53.51769 | 9.64118 | 16325 ft | 362 kts | 6° |
| 2026-05-01 14:26 | 53.54285 | 9.64470 | 15801 ft | 359 kts | 6° |
| 2026-05-01 14:27 | 53.56760 | 9.64817 | 15289 ft | 357 kts | 6° |
| 2026-05-01 14:27 | 53.59193 | 9.65165 | 14792 ft | 354 kts | 8° |
| 2026-05-01 14:27 | 53.61618 | 9.65813 | 14295 ft | 351 kts | 15° |
| 2026-05-01 14:28 | 53.66495 | 9.66786 | 12961 ft | 358 kts | 5° |
| 2026-05-01 14:28 | 53.68992 | 9.66980 | 12226 ft | 360 kts | 4° |
| 2026-05-01 14:28 | 53.71460 | 9.67173 | 11465 ft | 360 kts | 4° |
| 2026-05-01 14:28 | 53.73974 | 9.67372 | 10727 ft | 355 kts | 4° |
| 2026-05-01 14:29 | 53.76456 | 9.67570 | 9990 ft | 351 kts | 4° |
| 2026-05-01 14:29 | 53.78876 | 9.67773 | 9271 ft | 348 kts | 4° |
| 2026-05-01 14:30 | 53.85588 | 9.64341 | 7070 ft | 339 kts | 334° |
| 2026-05-01 14:30 | 53.87714 | 9.62606 | 6343 ft | 336 kts | 334° |
| 2026-05-01 14:30 | 53.89805 | 9.60902 | 5609 ft | 333 kts | 334° |
| 2026-05-01 14:31 | 53.94081 | 9.59041 | 4552 ft | 314 kts | 11° |
| 2026-05-01 14:31 | 53.96053 | 9.60247 | 4200 ft | 295 kts | 37° |
| 2026-05-01 14:31 | 53.97623 | 9.62370 | 4018 ft | 282 kts | 44° |
| 2026-05-01 14:31 | 53.99068 | 9.64552 | 3770 ft | 277 kts | 44° |
| 2026-05-01 14:32 | 54.00503 | 9.66753 | 3516 ft | 272 kts | 48° |
| 2026-05-01 14:32 | 54.01501 | 9.69449 | 3215 ft | 260 kts | 77° |
| 2026-05-01 14:32 | 54.01583 | 9.72383 | 2979 ft | 245 kts | 108° |
| 2026-05-01 14:32 | 54.00769 | 9.74847 | 2972 ft | 230 kts | 138° |
| 2026-05-01 14:33 | 53.99435 | 9.76124 | 2977 ft | 212 kts | 160° |
| 2026-05-01 14:33 | 53.97933 | 9.76431 | 2998 ft | 205 kts | 182° |
| 2026-05-01 14:33 | 53.96441 | 9.76211 | 2991 ft | 223 kts | 184° |
| 2026-05-01 14:33 | 53.94899 | 9.75967 | 2980 ft | 222 kts | 184° |
| 2026-05-01 14:34 | 53.93329 | 9.75715 | 2981 ft | 224 kts | 184° |
| 2026-05-01 14:34 | 53.91725 | 9.75825 | 2974 ft | 222 kts | 169° |
| 2026-05-01 14:34 | 53.90187 | 9.76489 | 2978 ft | 222 kts | 161° |
| 2026-05-01 14:34 | 53.88709 | 9.77460 | 2982 ft | 228 kts | 156° |
| 2026-05-01 14:35 | 53.87214 | 9.78629 | 2975 ft | 229 kts | 154° |
| 2026-05-01 14:35 | 53.85699 | 9.79897 | 2981 ft | 230 kts | 153° |
| 2026-05-01 14:35 | 53.84291 | 9.81113 | 2978 ft | 229 kts | 153° |
| 2026-05-01 14:35 | 53.82829 | 9.82398 | 2976 ft | 229 kts | 152° |
| 2026-05-01 14:36 | 53.81405 | 9.83658 | 2981 ft | 230 kts | 152° |
| 2026-05-01 14:36 | 53.79958 | 9.84935 | 2983 ft | 230 kts | 152° |
| 2026-05-01 14:36 | 53.78534 | 9.86182 | 2904 ft | 233 kts | 153° |
| 2026-05-01 14:36 | 53.77069 | 9.87458 | 2594 ft | 234 kts | 153° |
| 2026-05-01 14:37 | 53.75603 | 9.88730 | 2285 ft | 234 kts | 153° |
| 2026-05-01 14:37 | 53.74167 | 9.89974 | 1989 ft | 230 kts | 153° |
| 2026-05-01 14:37 | 53.72760 | 9.91195 | 1691 ft | 226 kts | 152° |
| 2026-05-01 14:37 | 53.71320 | 9.92446 | 1363 ft | 211 kts | 153° |
| 2026-05-01 14:38 | 53.70023 | 9.93573 | 1088 ft | 186 kts | 153° |
| 2026-05-01 14:38 | 53.68866 | 9.94574 | 848 ft | 167 kts | 153° |
| 2026-05-01 14:38 | 53.67818 | 9.95476 | 634 ft | 152 kts | 153° |
| 2026-05-01 14:38 | 53.66852 | 9.96313 | 420 ft | 142 kts | 153° |
| 2026-05-01 14:39 | 53.65927 | 9.97112 | 218 ft | 139 kts | 152° |
| 2026-05-01 14:39 | 53.65002 | 9.97915 | 69 ft | 135 kts | 154° |
| 2026-05-01 14:39 | 53.64178 | 9.98620 | 68 ft | 107 kts | 153° |
| 2026-05-01 14:39 | 53.63549 | 9.99157 | 68 ft | 68 kts | 154° |
| 2026-05-01 14:40 | 53.63333 | 9.99345 | 68 ft | 12 kts | 156° |
| 2026-05-01 14:40 | 53.63245 | 9.99358 | 68 ft | 11 kts | 189° |
| 2026-05-01 14:40 | 53.63161 | 9.99330 | 68 ft | 10 kts | 194° |
| 2026-05-01 14:40 | 53.63084 | 9.99293 | 68 ft | 10 kts | 202° |
| 2026-05-01 14:41 | 53.63022 | 9.99220 | 68 ft | 9 kts | 225° |
| 2026-05-01 14:41 | 53.62973 | 9.99130 | 68 ft | 9 kts | 230° |
| 2026-05-01 14:41 | 53.62930 | 9.99038 | 68 ft | 8 kts | 231° |
| 2026-05-01 14:41 | 53.62887 | 9.98954 | 68 ft | 8 kts | 218° |
| 2026-05-01 14:42 | 53.62822 | 9.98943 | 68 ft | 4 kts | 156° |
| 2026-05-01 14:42 | 53.62809 | 9.98986 | 68 ft | 3 kts | 88° |
| 2026-05-01 14:42 | 53.62816 | 9.99032 | 68 ft | 3 kts | 71° |
| 2026-05-01 14:42 | 53.62828 | 9.99078 | 68 ft | 3 kts | 65° |
| 2026-05-01 14:43 | 53.62833 | 9.99096 | 68 ft | 0 kts | 64° |